createdAt,value
2023-02-21T00:01:41.097Z,13.35
2023-02-21T00:04:26.067Z,13.75
2023-02-21T00:07:10.910Z,13.25
2023-02-21T00:09:57.660Z,15.10
2023-02-21T00:12:42.902Z,13.38
2023-02-21T00:15:27.915Z,13.73
2023-02-21T00:18:12.702Z,14.07
2023-02-21T00:20:57.721Z,13.30
2023-02-21T00:23:42.631Z,17.50
2023-02-21T00:26:27.666Z,12.98
2023-02-21T00:29:12.538Z,15.07
2023-02-21T00:31:57.507Z,15.52
2023-02-21T00:34:42.678Z,15.75
2023-02-21T00:37:27.582Z,14.75
2023-02-21T00:40:12.478Z,19.33
2023-02-21T00:42:57.677Z,16.75
2023-02-21T00:45:43.020Z,18.77
2023-02-21T00:48:28.073Z,18.10
2023-02-21T00:51:12.952Z,19.88
2023-02-21T00:53:58.214Z,18.05
2023-02-21T00:56:43.300Z,20.88
2023-02-21T00:59:28.337Z,23.25
2023-02-21T01:02:13.122Z,20.63
2023-02-21T01:04:58.113Z,21.27
2023-02-21T01:07:42.972Z,21.75
2023-02-21T01:10:28.087Z,24.58
2023-02-21T01:13:13.442Z,21.48
2023-02-21T01:15:58.438Z,19.95
2023-02-21T01:18:43.350Z,21.30
2023-02-21T01:21:32.373Z,20.63
2023-02-21T01:24:16.999Z,22.75
2023-02-21T01:27:01.931Z,22.50
2023-02-21T01:29:47.115Z,21.00
2023-02-21T01:32:32.490Z,22.80
2023-02-21T01:35:17.707Z,24.13
2023-02-21T01:38:02.996Z,24.00
2023-02-21T01:40:49.613Z,23.33
2023-02-21T01:43:37.743Z,24.58
2023-02-21T01:46:23.573Z,23.33
2023-02-21T01:49:10.978Z,23.17
2023-02-21T01:52:00.189Z,23.10
2023-02-21T01:54:50.482Z,21.70
2023-02-21T01:57:36.482Z,20.10
2023-02-21T02:00:25.361Z,21.33
2023-02-21T02:03:20.159Z,20.40
2023-02-21T02:09:52.009Z,20.90
2023-02-21T02:12:59.293Z,24.02
2023-02-21T02:15:49.788Z,21.55
2023-02-21T02:18:27.998Z,21.75
2023-02-21T02:21:20.061Z,22.58
2023-02-21T02:23:49.307Z,22.20
2023-02-21T02:26:46.818Z,25.05
2023-02-21T02:29:42.462Z,18.70
2023-02-21T02:32:42.421Z,20.10
2023-02-21T02:35:29.686Z,22.15
2023-02-21T02:38:14.897Z,21.17
2023-02-21T02:41:03.773Z,20.17
2023-02-21T02:43:54.235Z,22.42
2023-02-21T02:46:28.486Z,22.52
2023-02-21T02:49:03.168Z,20.50
2023-02-21T02:51:32.399Z,23.63
2023-02-21T02:53:59.026Z,21.85
2023-02-21T02:56:26.739Z,24.67
2023-02-21T02:59:02.520Z,21.13
2023-02-21T03:02:01.730Z,25.90
2023-02-21T03:04:45.001Z,23.40
2023-02-21T03:07:17.382Z,24.63
2023-02-21T03:10:19.212Z,23.83
2023-02-21T03:13:11.103Z,24.58
2023-02-21T03:18:16.295Z,22.48
2023-02-21T03:20:44.271Z,21.08
2023-02-21T03:23:15.682Z,21.23
2023-02-21T03:28:25.041Z,20.85
2023-02-21T03:30:56.226Z,20.08
2023-02-21T03:33:22.678Z,22.40
2023-02-21T03:35:49.190Z,18.85
2023-02-21T03:38:15.700Z,20.00
2023-02-21T03:40:42.262Z,18.20
2023-02-21T03:43:08.823Z,23.33
2023-02-21T03:45:36.095Z,22.30
2023-02-21T03:48:03.582Z,20.75
2023-02-21T03:50:30.041Z,20.40
2023-02-21T03:52:56.621Z,21.20
2023-02-21T03:55:23.190Z,20.17
2023-02-21T03:57:49.652Z,19.38
2023-02-21T04:00:16.408Z,20.50
2023-02-21T04:02:43.462Z,19.63
2023-02-21T04:05:10.275Z,22.75
2023-02-21T04:07:36.700Z,19.27
2023-02-21T04:10:03.685Z,19.83
2023-02-21T04:12:30.156Z,22.35
2023-02-21T04:14:58.558Z,21.75
2023-02-21T04:17:25.440Z,20.10
2023-02-21T04:19:52.249Z,21.05
2023-02-21T04:22:18.702Z,19.42
2023-02-21T04:24:45.282Z,19.10
2023-02-21T04:27:11.687Z,21.45
2023-02-21T04:29:38.244Z,23.83
2023-02-21T04:32:04.855Z,22.40
2023-02-21T04:34:31.329Z,25.75
2023-02-21T04:36:57.718Z,25.10
2023-02-21T04:39:24.145Z,23.80
2023-02-21T04:41:50.761Z,22.33
2023-02-21T04:44:18.243Z,24.50
2023-02-21T04:46:44.737Z,22.92
2023-02-21T04:49:13.005Z,21.63
2023-02-21T04:51:39.636Z,26.77
2023-02-21T04:54:07.746Z,25.63
2023-02-21T04:56:34.583Z,28.88
2023-02-21T04:59:01.106Z,26.40
2023-02-21T05:01:31.110Z,27.92
2023-02-21T05:03:59.101Z,29.77
2023-02-21T05:06:27.758Z,29.02
2023-02-21T05:08:54.655Z,27.45
2023-02-21T05:11:22.269Z,26.35
2023-02-21T05:13:48.862Z,28.02
2023-02-21T05:16:16.020Z,30.45
2023-02-21T05:18:43.752Z,26.13
2023-02-21T05:21:10.592Z,29.85
2023-02-21T05:23:39.966Z,29.52
2023-02-21T05:26:09.704Z,27.55
2023-02-21T05:28:37.058Z,25.73
2023-02-21T05:31:04.205Z,27.48
2023-02-21T05:33:31.114Z,29.85
2023-02-21T05:35:57.552Z,28.70
2023-02-21T05:38:25.203Z,32.03
2023-02-21T05:40:52.231Z,34.92
2023-02-21T05:43:18.895Z,26.05
2023-02-21T05:45:45.616Z,30.52
2023-02-21T05:48:12.090Z,37.30
2023-02-21T05:50:39.653Z,29.25
2023-02-21T05:53:06.936Z,36.50
2023-02-21T05:55:33.416Z,32.00
2023-02-21T05:57:59.849Z,28.30
2023-02-21T06:00:28.775Z,28.95
2023-02-21T06:02:56.060Z,29.60
2023-02-21T06:05:23.239Z,34.28
2023-02-21T06:07:50.196Z,27.77
2023-02-21T06:10:17.330Z,28.45
2023-02-21T06:12:43.951Z,32.55
2023-02-21T06:15:10.852Z,32.50
2023-02-21T06:17:37.842Z,31.60
2023-02-21T06:20:05.591Z,31.25
2023-02-21T06:22:32.396Z,33.85
2023-02-21T06:24:58.977Z,30.30
2023-02-21T06:27:25.558Z,30.70
2023-02-21T06:29:52.028Z,30.35
2023-02-21T06:32:18.550Z,29.50
2023-02-21T06:34:45.094Z,28.17
2023-02-21T06:37:11.660Z,28.48
2023-02-21T06:39:39.125Z,27.02
2023-02-21T06:42:06.460Z,29.35
2023-02-21T06:44:33.086Z,25.20
2023-02-21T06:46:59.774Z,28.02
2023-02-21T06:49:26.355Z,27.15
2023-02-21T06:51:52.856Z,25.25
2023-02-21T06:54:19.409Z,28.15
2023-02-21T06:56:45.834Z,27.80
2023-02-21T06:59:12.408Z,31.13
2023-02-21T07:01:38.892Z,23.65
2023-02-21T07:04:05.565Z,23.33
2023-02-21T07:06:33.621Z,30.00
2023-02-21T07:09:00.189Z,23.63
2023-02-21T07:11:27.861Z,24.17
2023-02-21T07:13:56.755Z,26.85
2023-02-21T07:16:23.396Z,26.73
2023-02-21T07:18:49.976Z,25.17
2023-02-21T07:21:17.399Z,25.10
2023-02-21T07:23:44.846Z,21.17
2023-02-21T07:26:12.218Z,19.77
2023-02-21T07:28:39.288Z,23.20
2023-02-21T07:31:06.319Z,17.27
2023-02-21T07:33:32.961Z,16.42
2023-02-21T07:35:59.454Z,20.13
2023-02-21T07:38:28.245Z,15.32
2023-02-21T07:40:56.235Z,14.75
2023-02-21T07:43:22.853Z,12.85
2023-02-21T07:45:49.458Z,15.73
2023-02-21T07:48:16.019Z,13.40
2023-02-21T07:50:43.410Z,16.10
2023-02-21T07:53:11.411Z,21.02
2023-02-21T07:55:38.119Z,15.18
2023-02-21T07:58:05.008Z,14.20
2023-02-21T08:00:32.174Z,12.25
2023-02-21T08:02:59.424Z,10.35
2023-02-21T08:05:25.871Z,22.73
2023-02-21T08:07:53.030Z,11.05
2023-02-21T08:10:25.085Z,6.60
2023-02-21T08:12:51.837Z,7.88
2023-02-21T08:15:18.753Z,5.03
2023-02-21T08:17:49.215Z,6.28
2023-02-21T08:20:16.616Z,4.15
2023-02-21T08:22:43.188Z,3.03
2023-02-21T08:25:11.646Z,3.38
2023-02-21T08:27:40.711Z,3.70
2023-02-21T08:30:09.980Z,3.13
2023-02-21T08:32:37.019Z,2.83
2023-02-21T08:35:06.283Z,5.70
2023-02-21T08:37:36.201Z,5.03
2023-02-21T08:40:05.155Z,3.72
2023-02-21T08:42:31.899Z,3.25
2023-02-21T08:44:58.430Z,12.50
2023-02-21T08:47:24.930Z,4.40
2023-02-21T08:49:51.408Z,5.50
2023-02-21T08:52:19.060Z,4.63
2023-02-21T08:54:46.158Z,3.72
2023-02-21T08:57:13.336Z,5.30
2023-02-21T08:59:45.131Z,6.18
2023-02-21T09:02:18.637Z,5.80
2023-02-21T09:04:45.824Z,5.05
2023-02-21T09:07:17.441Z,5.82
2023-02-21T09:12:11.103Z,8.98
2023-02-21T09:14:39.762Z,3.22
2023-02-21T09:17:08.778Z,8.63
2023-02-21T09:19:35.707Z,7.35
2023-02-21T09:22:04.368Z,7.07
2023-02-21T09:24:31.135Z,10.48
2023-02-21T09:26:59.564Z,5.32
2023-02-21T09:29:31.639Z,7.38
2023-02-21T09:32:04.444Z,8.77
2023-02-21T09:34:31.074Z,5.93
2023-02-21T09:36:57.569Z,3.58
2023-02-21T09:39:24.563Z,4.20
2023-02-21T09:41:53.525Z,2.50
2023-02-21T09:44:27.460Z,2.72
2023-02-21T09:47:06.025Z,1.92
2023-02-21T09:49:45.099Z,5.93
2023-02-21T09:52:41.350Z,1.92
2023-02-21T09:55:19.995Z,3.63
2023-02-21T09:57:46.520Z,2.45
2023-02-21T10:00:18.517Z,3.90
2023-02-21T10:03:09.500Z,3.60
2023-02-21T10:06:03.815Z,6.03
2023-02-21T10:08:41.802Z,5.25
2023-02-21T10:11:45.827Z,3.97
2023-02-21T10:14:20.805Z,3.15
2023-02-21T10:16:56.119Z,5.03
2023-02-21T10:19:31.242Z,4.93
2023-02-21T10:22:00.837Z,3.53
2023-02-21T10:24:28.674Z,2.35
2023-02-21T10:27:05.527Z,5.25
2023-02-21T10:29:50.722Z,4.07
2023-02-21T10:32:17.788Z,1.27
2023-02-21T10:34:47.857Z,3.38
2023-02-21T10:37:56.321Z,3.50
2023-02-21T10:40:28.569Z,4.22
2023-02-21T10:43:03.517Z,6.88
2023-02-21T10:45:37.877Z,3.92
2023-02-21T10:48:12.660Z,4.30
2023-02-21T10:50:57.572Z,6.25
2023-02-21T10:53:36.927Z,4.97
2023-02-21T10:56:19.433Z,4.03
2023-02-21T10:58:56.804Z,5.78
2023-02-21T11:01:33.724Z,8.60
2023-02-21T11:04:04.599Z,3.65
2023-02-21T11:06:30.997Z,3.92
2023-02-21T11:08:58.397Z,4.05
2023-02-21T11:11:42.177Z,9.00
2023-02-21T11:14:21.406Z,5.97
2023-02-21T11:17:06.870Z,10.25
2023-02-21T11:19:51.567Z,10.25
2023-02-21T11:22:47.005Z,6.90
2023-02-21T11:25:41.170Z,9.10
2023-02-21T11:28:10.374Z,13.73
2023-02-21T11:30:40.412Z,5.15
2023-02-21T11:33:09.105Z,17.23
2023-02-21T11:35:39.568Z,12.93
2023-02-21T11:38:09.974Z,8.75
2023-02-21T11:40:47.410Z,9.35
2023-02-21T11:43:31.520Z,6.57
2023-02-21T11:46:07.069Z,7.85
2023-02-21T11:48:50.486Z,8.15
2023-02-21T11:51:32.576Z,6.00
2023-02-21T11:53:59.449Z,9.48
2023-02-21T11:56:36.109Z,12.35
2023-02-21T11:59:17.937Z,9.40
2023-02-21T12:01:48.482Z,10.23
2023-02-21T12:04:44.264Z,15.25
2023-02-21T12:07:16.447Z,9.98
2023-02-21T12:10:18.969Z,10.05
2023-02-21T12:13:27.064Z,11.73
2023-02-21T12:16:11.780Z,13.15
2023-02-21T12:19:00.030Z,11.73
2023-02-21T12:21:51.373Z,12.15
2023-02-21T12:24:26.136Z,7.03
2023-02-21T12:27:03.192Z,20.60
2023-02-21T12:29:41.954Z,17.98
2023-02-21T12:32:29.019Z,11.32
2023-02-21T12:35:02.552Z,10.75
2023-02-21T12:37:29.527Z,18.75
2023-02-21T12:40:18.972Z,10.48
2023-02-21T12:42:57.570Z,13.18
2023-02-21T12:45:44.595Z,7.78
2023-02-21T12:48:19.736Z,12.63
2023-02-21T12:50:52.013Z,12.68
2023-02-21T12:53:52.160Z,14.13
2023-02-21T12:56:35.277Z,11.85
2023-02-21T12:59:23.713Z,18.83
2023-02-21T13:02:29.251Z,12.95
2023-02-21T13:05:05.284Z,8.88
2023-02-21T13:07:42.915Z,12.18
2023-02-21T13:10:20.199Z,12.90
2023-02-21T13:12:58.962Z,15.13
2023-02-21T13:15:31.804Z,16.98
2023-02-21T13:18:04.969Z,11.10
2023-02-21T13:20:45.062Z,9.40
2023-02-21T13:24:07.738Z,9.05
2023-02-21T13:26:52.469Z,11.80
2023-02-21T13:29:27.138Z,15.45
2023-02-21T13:32:03.570Z,10.00
2023-02-21T13:34:37.039Z,15.45
2023-02-21T13:37:08.545Z,18.50
2023-02-21T13:39:39.216Z,13.68
2023-02-21T13:42:15.093Z,17.30
2023-02-21T13:44:53.373Z,12.07
2023-02-21T13:47:22.694Z,17.67
2023-02-21T13:49:50.945Z,15.25
2023-02-21T13:52:23.501Z,12.65
2023-02-21T13:55:11.658Z,21.15
2023-02-21T13:57:43.919Z,17.95
2023-02-21T14:00:25.449Z,18.13
2023-02-21T14:02:58.128Z,17.08
2023-02-21T14:05:25.480Z,15.82
2023-02-21T14:07:55.065Z,14.02
2023-02-21T14:10:38.817Z,25.70
2023-02-21T14:13:18.316Z,10.15
2023-02-21T14:15:49.169Z,17.17
2023-02-21T14:18:25.632Z,18.60
2023-02-21T14:20:55.262Z,15.15
2023-02-21T14:23:25.522Z,23.73
2023-02-21T14:26:03.971Z,18.45
2023-02-21T14:29:00.305Z,16.30
2023-02-21T14:31:45.763Z,12.95
2023-02-21T14:34:14.802Z,19.85
2023-02-21T14:36:43.171Z,12.95
2023-02-21T14:39:10.757Z,20.58
2023-02-21T14:42:19.154Z,20.90
2023-02-21T14:44:59.147Z,15.38
2023-02-21T14:47:44.103Z,31.55
2023-02-21T14:50:19.949Z,16.55
2023-02-21T14:53:22.190Z,17.75
2023-02-21T14:55:57.470Z,20.60
2023-02-21T14:58:40.959Z,22.13
2023-02-21T15:01:41.207Z,28.27
2023-02-21T15:04:10.703Z,16.42
2023-02-21T15:06:43.592Z,17.98
2023-02-21T15:09:19.070Z,25.60
2023-02-21T15:11:47.719Z,24.20
2023-02-21T15:14:23.952Z,23.67
2023-02-21T15:17:00.137Z,29.38
2023-02-21T15:19:26.707Z,32.72
2023-02-21T15:22:25.004Z,20.08
2023-02-21T15:25:07.653Z,25.58
2023-02-21T15:27:35.872Z,24.98
2023-02-21T15:30:16.234Z,18.35
2023-02-21T15:32:44.487Z,23.00
2023-02-21T15:35:18.781Z,23.85
2023-02-21T15:37:46.725Z,22.25
2023-02-21T15:40:19.642Z,28.52
2023-02-21T15:42:50.021Z,22.58
2023-02-21T15:45:25.928Z,18.20
2023-02-21T15:47:53.701Z,23.05
2023-02-21T15:50:37.922Z,27.42
2023-02-21T15:53:24.722Z,23.33
2023-02-21T15:55:53.265Z,25.63
2023-02-21T15:58:27.193Z,29.30
2023-02-21T16:01:06.774Z,32.35
2023-02-21T16:03:40.599Z,29.55
2023-02-21T16:06:28.601Z,19.02
2023-02-21T16:09:06.857Z,33.13
2023-02-21T16:11:52.141Z,38.55
2023-02-21T16:14:44.201Z,29.08
2023-02-21T16:17:13.639Z,34.78
2023-02-21T16:19:42.377Z,27.38
2023-02-21T16:22:18.153Z,24.00
2023-02-21T16:24:44.772Z,25.75
2023-02-21T16:27:17.440Z,27.88
2023-02-21T16:29:44.193Z,26.25
2023-02-21T16:32:19.774Z,28.30
2023-02-21T16:34:46.727Z,28.42
2023-02-21T16:37:16.765Z,24.33
2023-02-21T16:39:43.698Z,30.73
2023-02-21T16:42:10.900Z,19.92
2023-02-21T16:44:38.061Z,28.70
2023-02-21T16:47:06.732Z,22.90
2023-02-21T16:49:33.525Z,20.88
2023-02-21T16:52:00.084Z,29.00
2023-02-21T16:54:26.748Z,24.10
2023-02-21T16:56:53.835Z,35.88
2023-02-21T16:59:22.583Z,30.33
2023-02-21T17:01:49.421Z,31.48
2023-02-21T17:04:20.556Z,27.95
2023-02-21T17:06:50.578Z,35.17
2023-02-21T17:09:21.986Z,36.00
2023-02-21T17:11:48.603Z,22.08
2023-02-21T17:14:15.642Z,31.90
2023-02-21T17:16:46.021Z,27.50
2023-02-21T17:19:17.554Z,29.33
2023-02-21T17:21:45.364Z,31.83
2023-02-21T17:24:13.909Z,35.05
2023-02-21T17:26:41.067Z,46.88
2023-02-21T17:29:08.382Z,40.55
2023-02-21T17:31:36.626Z,46.33
2023-02-21T17:34:03.996Z,37.60
2023-02-21T17:36:31.034Z,38.42
2023-02-21T17:38:58.953Z,29.08
2023-02-21T17:41:26.466Z,30.75
2023-02-21T17:43:53.184Z,23.10
2023-02-21T17:46:20.468Z,31.08
2023-02-21T17:48:47.399Z,32.33
2023-02-21T17:51:19.017Z,42.55
2023-02-21T17:56:12.111Z,26.02
2023-02-21T17:58:38.632Z,41.45
2023-02-21T18:01:05.446Z,31.75
2023-02-21T18:03:31.909Z,30.08
2023-02-21T18:05:59.296Z,33.55
2023-02-21T18:08:25.847Z,30.60
2023-02-21T18:10:52.349Z,27.23
2023-02-21T18:13:22.870Z,28.15
2023-02-21T18:15:49.625Z,36.65
2023-02-21T18:18:16.144Z,33.85
2023-02-21T18:20:42.714Z,32.90
2023-02-21T18:23:09.408Z,33.17
2023-02-21T18:25:36.033Z,29.27
2023-02-21T18:28:03.309Z,35.15
2023-02-21T18:30:29.857Z,28.10
2023-02-21T18:32:56.436Z,36.85
2023-02-21T18:35:22.918Z,28.55
2023-02-21T18:37:49.651Z,38.88
2023-02-21T18:40:18.431Z,34.13
2023-02-21T18:42:45.828Z,30.52
2023-02-21T18:45:12.547Z,27.27
2023-02-21T18:47:39.105Z,31.52
2023-02-21T18:50:06.834Z,28.70
2023-02-21T18:52:33.386Z,26.08
2023-02-21T18:55:03.673Z,39.42
2023-02-21T18:57:31.356Z,31.88
2023-02-21T18:59:58.559Z,36.78
2023-02-21T19:02:25.489Z,31.75
2023-02-21T19:04:51.925Z,27.80
2023-02-21T19:07:18.794Z,34.67
2023-02-21T19:09:47.239Z,41.85
2023-02-21T19:12:13.872Z,30.65
2023-02-21T19:14:40.432Z,32.28
2023-02-21T19:17:07.985Z,38.47
2023-02-21T19:19:35.481Z,33.30
2023-02-21T19:22:02.124Z,36.08
2023-02-21T19:24:28.851Z,39.40
2023-02-21T19:26:55.775Z,38.97
2023-02-21T19:29:22.346Z,27.58
2023-02-21T19:31:49.359Z,40.92
2023-02-21T19:34:16.103Z,36.17
2023-02-21T19:36:42.857Z,28.50
2023-02-21T19:39:10.047Z,23.30
2023-02-21T19:41:36.703Z,30.40
2023-02-21T19:44:04.298Z,31.17
2023-02-21T19:46:32.168Z,30.10
2023-02-21T19:49:02.277Z,24.90
2023-02-21T19:51:32.183Z,43.35
2023-02-21T19:53:59.964Z,24.08
2023-02-21T19:56:27.338Z,36.08
2023-02-21T19:58:53.920Z,36.58
2023-02-21T20:01:21.665Z,44.55
2023-02-21T20:03:49.815Z,53.65
2023-02-21T20:06:17.065Z,34.35
2023-02-21T20:08:48.422Z,33.47
2023-02-21T20:13:45.069Z,33.17
2023-02-21T20:16:15.300Z,31.80
2023-02-21T20:18:42.642Z,34.65
2023-02-21T20:21:09.496Z,36.08
2023-02-21T20:23:36.057Z,34.40
2023-02-21T20:26:02.594Z,25.05
2023-02-21T20:28:29.114Z,37.67
2023-02-21T20:30:55.695Z,28.48
2023-02-21T20:33:23.175Z,29.55
2023-02-21T20:35:50.229Z,34.05
2023-02-21T20:38:16.709Z,37.75
2023-02-21T20:40:43.220Z,40.88
2023-02-21T20:43:10.734Z,35.30
2023-02-21T20:45:38.414Z,39.13
2023-02-21T20:48:10.983Z,40.40
2023-02-21T20:50:38.078Z,40.20
2023-02-21T20:53:05.537Z,34.25
2023-02-21T20:55:32.225Z,46.40
2023-02-21T20:57:59.085Z,35.65
2023-02-21T21:00:30.192Z,36.97
2023-02-21T21:02:56.876Z,40.97
2023-02-21T21:05:23.343Z,31.42
2023-02-21T21:07:49.783Z,51.40
2023-02-21T21:10:16.750Z,35.58
2023-02-21T21:12:43.300Z,38.53
2023-02-21T21:15:10.451Z,38.45
2023-02-21T21:17:39.058Z,39.03
2023-02-21T21:20:10.311Z,30.70
2023-02-21T21:22:36.850Z,39.47
2023-02-21T21:25:04.679Z,35.55
2023-02-21T21:27:32.706Z,32.85
2023-02-21T21:29:59.307Z,32.55
2023-02-21T21:32:25.918Z,36.80
2023-02-21T21:34:55.746Z,30.20
2023-02-21T21:37:26.572Z,42.53
2023-02-21T21:39:54.711Z,41.38
2023-02-21T21:42:26.554Z,45.03
2023-02-21T21:44:54.760Z,39.33
2023-02-21T21:49:56.625Z,40.58
2023-02-21T21:57:55.882Z,42.00
2023-02-21T22:00:26.071Z,37.25
2023-02-21T22:02:57.214Z,36.22
2023-02-21T22:05:25.675Z,31.17
2023-02-21T22:07:52.366Z,49.00
2023-02-21T22:10:20.512Z,47.67
2023-02-21T22:12:49.887Z,32.60
2023-02-21T22:15:19.974Z,38.65
2023-02-21T22:17:47.373Z,36.33
2023-02-21T22:20:18.633Z,36.38
2023-02-21T22:22:51.527Z,38.83
2023-02-21T22:25:19.995Z,35.67
2023-02-21T22:27:47.983Z,34.17
2023-02-21T22:30:21.676Z,36.80
2023-02-21T22:32:49.025Z,39.83
2023-02-21T22:35:18.602Z,37.67
2023-02-21T22:37:52.674Z,38.97
2023-02-21T22:40:24.526Z,47.55
2023-02-21T22:42:51.666Z,34.50
2023-02-21T22:45:19.655Z,32.90
2023-02-21T22:47:47.001Z,30.65
2023-02-21T22:50:15.371Z,28.95
2023-02-21T22:52:41.957Z,36.85
2023-02-21T22:55:08.704Z,31.52
